sensor_id;sensor_type;location;lat;lon;timestamp;temperature;humidity
46037;DHT22;31769;49.304;8.428;2023-09-18T00:01:49;22.10;99.90
46037;DHT22;31769;49.304;8.428;2023-09-18T00:04:50;22.10;99.90
46037;DHT22;31769;49.304;8.428;2023-09-18T00:07:50;22.10;99.90
46037;DHT22;31769;49.304;8.428;2023-09-18T00:10:54;22.10;99.90
46037;DHT22;31769;49.304;8.428;2023-09-18T00:13:55;22.10;99.90
46037;DHT22;31769;49.304;8.428;2023-09-18T00:16:56;22.00;99.90
46037;DHT22;31769;49.304;8.428;2023-09-18T00:19:58;22.00;99.90
46037;DHT22;31769;49.304;8.428;2023-09-18T00:22:58;22.00;99.90
46037;DHT22;31769;49.304;8.428;2023-09-18T00:25:59;22.00;99.90
46037;DHT22;31769;49.304;8.428;2023-09-18T00:29:00;22.00;99.90
46037;DHT22;31769;49.304;8.428;2023-09-18T00:32:00;22.00;99.90
46037;DHT22;31769;49.304;8.428;2023-09-18T00:35:01;21.90;99.90
46037;DHT22;31769;49.304;8.428;2023-09-18T00:38:02;21.90;99.90
46037;DHT22;31769;49.304;8.428;2023-09-18T00:41:03;21.90;99.90
46037;DHT22;31769;49.304;8.428;2023-09-18T00:44:04;21.90;99.90
46037;DHT22;31769;49.304;8.428;2023-09-18T00:47:07;21.90;99.90
46037;DHT22;31769;49.304;8.428;2023-09-18T00:50:09;21.90;99.90
46037;DHT22;31769;49.304;8.428;2023-09-18T00:53:16;21.90;99.90
46037;DHT22;31769;49.304;8.428;2023-09-18T00:56:18;21.90;99.90
46037;DHT22;31769;49.304;8.428;2023-09-18T00:59:21;21.90;99.90
46037;DHT22;31769;49.304;8.428;2023-09-18T01:02:21;21.90;99.90
46037;DHT22;31769;49.304;8.428;2023-09-18T01:05:22;21.90;99.90
46037;DHT22;31769;49.304;8.428;2023-09-18T01:08:23;21.90;99.90
46037;DHT22;31769;49.304;8.428;2023-09-18T01:14:40;21.80;99.90
46037;DHT22;31769;49.304;8.428;2023-09-18T01:17:43;21.80;99.90
46037;DHT22;31769;49.304;8.428;2023-09-18T01:20:44;21.80;99.90
46037;DHT22;31769;49.304;8.428;2023-09-18T01:23:45;21.70;99.90
46037;DHT22;31769;49.304;8.428;2023-09-18T01:26:46;21.60;99.90
46037;DHT22;31769;49.304;8.428;2023-09-18T01:29:47;21.50;99.90
46037;DHT22;31769;49.304;8.428;2023-09-18T01:32:48;21.30;99.90
46037;DHT22;31769;49.304;8.428;2023-09-18T01:35:50;21.20;99.90
46037;DHT22;31769;49.304;8.428;2023-09-18T01:38:55;21.00;99.90
46037;DHT22;31769;49.304;8.428;2023-09-18T01:41:56;20.80;99.90
46037;DHT22;31769;49.304;8.428;2023-09-18T01:44:56;20.90;99.90
46037;DHT22;31769;49.304;8.428;2023-09-18T01:47:57;21.00;99.90
46037;DHT22;31769;49.304;8.428;2023-09-18T01:50:58;21.10;99.90
46037;DHT22;31769;49.304;8.428;2023-09-18T01:53:58;21.00;99.90
46037;DHT22;31769;49.304;8.428;2023-09-18T01:57:00;21.10;99.90
46037;DHT22;31769;49.304;8.428;2023-09-18T02:00:00;21.20;99.90
46037;DHT22;31769;49.304;8.428;2023-09-18T02:03:01;21.20;99.90
46037;DHT22;31769;49.304;8.428;2023-09-18T02:06:02;21.20;99.90
46037;DHT22;31769;49.304;8.428;2023-09-18T02:09:03;21.10;99.90
46037;DHT22;31769;49.304;8.428;2023-09-18T02:12:04;21.10;99.90
46037;DHT22;31769;49.304;8.428;2023-09-18T02:15:06;21.10;99.90
46037;DHT22;31769;49.304;8.428;2023-09-18T02:18:07;21.10;99.90
46037;DHT22;31769;49.304;8.428;2023-09-18T02:21:08;20.90;99.90
46037;DHT22;31769;49.304;8.428;2023-09-18T02:24:09;20.80;99.90
46037;DHT22;31769;49.304;8.428;2023-09-18T02:27:10;20.70;99.90
46037;DHT22;31769;49.304;8.428;2023-09-18T02:30:12;20.60;99.90
46037;DHT22;31769;49.304;8.428;2023-09-18T02:33:15;20.50;99.90
46037;DHT22;31769;49.304;8.428;2023-09-18T02:36:15;20.40;99.90
46037;DHT22;31769;49.304;8.428;2023-09-18T02:39:16;20.50;99.90
46037;DHT22;31769;49.304;8.428;2023-09-18T02:42:17;20.60;99.90
46037;DHT22;31769;49.304;8.428;2023-09-18T02:45:17;20.60;99.90
46037;DHT22;31769;49.304;8.428;2023-09-18T02:48:19;20.70;99.90
46037;DHT22;31769;49.304;8.428;2023-09-18T02:51:22;20.70;99.90
46037;DHT22;31769;49.304;8.428;2023-09-18T02:54:22;20.90;99.90
46037;DHT22;31769;49.304;8.428;2023-09-18T02:57:23;20.80;99.90
46037;DHT22;31769;49.304;8.428;2023-09-18T03:00:24;20.90;99.90
46037;DHT22;31769;49.304;8.428;2023-09-18T03:03:24;20.80;99.90
46037;DHT22;31769;49.304;8.428;2023-09-18T03:06:25;20.60;99.90
46037;DHT22;31769;49.304;8.428;2023-09-18T03:09:26;20.40;99.90
46037;DHT22;31769;49.304;8.428;2023-09-18T03:12:27;20.50;99.90
46037;DHT22;31769;49.304;8.428;2023-09-18T03:15:29;20.40;99.90
46037;DHT22;31769;49.304;8.428;2023-09-18T03:18:31;20.50;99.90
46037;DHT22;31769;49.304;8.428;2023-09-18T03:21:32;20.50;99.90
46037;DHT22;31769;49.304;8.428;2023-09-18T03:24:35;20.50;99.90
46037;DHT22;31769;49.304;8.428;2023-09-18T03:27:36;20.30;99.90
46037;DHT22;31769;49.304;8.428;2023-09-18T03:30:37;20.10;99.90
46037;DHT22;31769;49.304;8.428;2023-09-18T03:33:37;20.00;99.90
46037;DHT22;31769;49.304;8.428;2023-09-18T03:36:38;19.90;99.90
46037;DHT22;31769;49.304;8.428;2023-09-18T03:39:40;19.70;99.90
46037;DHT22;31769;49.304;8.428;2023-09-18T03:42:41;19.70;99.90
46037;DHT22;31769;49.304;8.428;2023-09-18T03:45:41;19.70;99.90
46037;DHT22;31769;49.304;8.428;2023-09-18T03:48:43;19.60;99.90
46037;DHT22;31769;49.304;8.428;2023-09-18T03:51:44;19.70;99.90
46037;DHT22;31769;49.304;8.428;2023-09-18T03:54:45;19.90;99.90
46037;DHT22;31769;49.304;8.428;2023-09-18T03:57:45;19.70;99.90
46037;DHT22;31769;49.304;8.428;2023-09-18T04:00:49;19.70;99.90
46037;DHT22;31769;49.304;8.428;2023-09-18T04:03:49;19.60;99.90
46037;DHT22;31769;49.304;8.428;2023-09-18T04:06:50;19.50;99.90
46037;DHT22;31769;49.304;8.428;2023-09-18T04:09:51;19.50;99.90
46037;DHT22;31769;49.304;8.428;2023-09-18T04:12:52;19.40;99.90
46037;DHT22;31769;49.304;8.428;2023-09-18T04:15:52;19.50;99.90
46037;DHT22;31769;49.304;8.428;2023-09-18T04:18:57;19.50;99.90
46037;DHT22;31769;49.304;8.428;2023-09-18T04:21:59;19.50;99.90
46037;DHT22;31769;49.304;8.428;2023-09-18T04:25:00;19.60;99.90
46037;DHT22;31769;49.304;8.428;2023-09-18T04:28:00;19.60;99.90
46037;DHT22;31769;49.304;8.428;2023-09-18T04:31:01;19.60;99.90
46037;DHT22;31769;49.304;8.428;2023-09-18T04:34:02;19.60;99.90
46037;DHT22;31769;49.304;8.428;2023-09-18T04:37:03;19.60;99.90
46037;DHT22;31769;49.304;8.428;2023-09-18T04:40:08;19.60;99.90
46037;DHT22;31769;49.304;8.428;2023-09-18T04:43:13;19.50;99.90
46037;DHT22;31769;49.304;8.428;2023-09-18T04:46:15;19.50;99.90
46037;DHT22;31769;49.304;8.428;2023-09-18T04:49:16;19.50;99.90
46037;DHT22;31769;49.304;8.428;2023-09-18T04:52:17;19.40;99.90
46037;DHT22;31769;49.304;8.428;2023-09-18T04:55:17;19.50;99.90
46037;DHT22;31769;49.304;8.428;2023-09-18T04:58:18;19.40;99.90
46037;DHT22;31769;49.304;8.428;2023-09-18T05:01:19;19.50;99.90
46037;DHT22;31769;49.304;8.428;2023-09-18T05:04:22;19.30;99.90
46037;DHT22;31769;49.304;8.428;2023-09-18T05:07:23;19.50;99.90
46037;DHT22;31769;49.304;8.428;2023-09-18T05:10:23;19.30;99.90
46037;DHT22;31769;49.304;8.428;2023-09-18T05:13:24;19.30;99.90
46037;DHT22;31769;49.304;8.428;2023-09-18T05:16:25;19.30;99.90
46037;DHT22;31769;49.304;8.428;2023-09-18T05:19:26;19.20;99.90
46037;DHT22;31769;49.304;8.428;2023-09-18T05:22:27;19.20;99.90
46037;DHT22;31769;49.304;8.428;2023-09-18T05:25:29;19.20;99.90
46037;DHT22;31769;49.304;8.428;2023-09-18T05:28:32;19.10;99.90
46037;DHT22;31769;49.304;8.428;2023-09-18T05:31:33;19.00;99.90
46037;DHT22;31769;49.304;8.428;2023-09-18T05:34:34;19.00;99.90
46037;DHT22;31769;49.304;8.428;2023-09-18T05:37:34;19.00;99.90
46037;DHT22;31769;49.304;8.428;2023-09-18T05:40:35;19.00;99.90
46037;DHT22;31769;49.304;8.428;2023-09-18T05:43:36;19.00;99.90
46037;DHT22;31769;49.304;8.428;2023-09-18T05:46:37;19.00;99.90
46037;DHT22;31769;49.304;8.428;2023-09-18T05:49:38;18.90;99.90
46037;DHT22;31769;49.304;8.428;2023-09-18T05:52:38;18.90;99.90
46037;DHT22;31769;49.304;8.428;2023-09-18T05:55:40;19.00;99.90
46037;DHT22;31769;49.304;8.428;2023-09-18T05:58:41;19.00;99.90
46037;DHT22;31769;49.304;8.428;2023-09-18T06:01:41;19.10;99.90
46037;DHT22;31769;49.304;8.428;2023-09-18T06:04:42;19.10;99.90
46037;DHT22;31769;49.304;8.428;2023-09-18T06:07:44;19.20;99.90
46037;DHT22;31769;49.304;8.428;2023-09-18T06:10:45;19.20;99.90
46037;DHT22;31769;49.304;8.428;2023-09-18T06:13:46;19.20;99.90
46037;DHT22;31769;49.304;8.428;2023-09-18T06:16:46;19.30;99.90
46037;DHT22;31769;49.304;8.428;2023-09-18T06:19:47;19.30;99.90
46037;DHT22;31769;49.304;8.428;2023-09-18T06:22:48;19.30;99.90
46037;DHT22;31769;49.304;8.428;2023-09-18T06:25:49;19.30;99.90
46037;DHT22;31769;49.304;8.428;2023-09-18T06:28:55;19.40;99.90
46037;DHT22;31769;49.304;8.428;2023-09-18T06:31:56;19.40;99.90
46037;DHT22;31769;49.304;8.428;2023-09-18T06:34:57;19.50;99.90
46037;DHT22;31769;49.304;8.428;2023-09-18T06:37:58;19.60;99.90
46037;DHT22;31769;49.304;8.428;2023-09-18T06:41:00;19.60;99.90
46037;DHT22;31769;49.304;8.428;2023-09-18T06:44:02;19.60;99.90
46037;DHT22;31769;49.304;8.428;2023-09-18T06:47:04;19.70;99.90
46037;DHT22;31769;49.304;8.428;2023-09-18T06:50:05;19.70;99.90
46037;DHT22;31769;49.304;8.428;2023-09-18T06:53:06;19.80;99.90
46037;DHT22;31769;49.304;8.428;2023-09-18T06:56:07;19.80;99.90
46037;DHT22;31769;49.304;8.428;2023-09-18T06:59:10;19.80;99.90
46037;DHT22;31769;49.304;8.428;2023-09-18T07:02:12;19.90;99.90
46037;DHT22;31769;49.304;8.428;2023-09-18T07:05:15;19.90;99.90
46037;DHT22;31769;49.304;8.428;2023-09-18T07:08:16;20.00;99.90
46037;DHT22;31769;49.304;8.428;2023-09-18T07:11:19;20.10;99.90
46037;DHT22;31769;49.304;8.428;2023-09-18T07:14:20;20.10;99.90
46037;DHT22;31769;49.304;8.428;2023-09-18T07:17:21;20.20;99.90
46037;DHT22;31769;49.304;8.428;2023-09-18T07:20:21;20.30;99.90
46037;DHT22;31769;49.304;8.428;2023-09-18T07:23:24;20.30;99.90
46037;DHT22;31769;49.304;8.428;2023-09-18T07:26:25;20.30;99.90
46037;DHT22;31769;49.304;8.428;2023-09-18T07:29:25;20.30;99.90
46037;DHT22;31769;49.304;8.428;2023-09-18T07:32:26;20.30;99.90
46037;DHT22;31769;49.304;8.428;2023-09-18T07:35:28;20.30;99.90
46037;DHT22;31769;49.304;8.428;2023-09-18T07:38:29;20.30;99.90
46037;DHT22;31769;49.304;8.428;2023-09-18T07:41:32;20.30;99.90
46037;DHT22;31769;49.304;8.428;2023-09-18T07:44:32;20.30;99.90
46037;DHT22;31769;49.304;8.428;2023-09-18T07:47:33;20.30;99.90
46037;DHT22;31769;49.304;8.428;2023-09-18T07:50:37;20.30;99.90
46037;DHT22;31769;49.304;8.428;2023-09-18T07:53:39;20.30;99.90
46037;DHT22;31769;49.304;8.428;2023-09-18T07:56:39;20.30;99.90
46037;DHT22;31769;49.304;8.428;2023-09-18T07:59:40;20.30;99.90
46037;DHT22;31769;49.304;8.428;2023-09-18T08:02:42;20.30;99.90
46037;DHT22;31769;49.304;8.428;2023-09-18T08:05:43;20.30;99.90
46037;DHT22;31769;49.304;8.428;2023-09-18T08:08:43;20.30;99.90
46037;DHT22;31769;49.304;8.428;2023-09-18T08:11:44;20.30;99.90
46037;DHT22;31769;49.304;8.428;2023-09-18T08:14:45;20.30;99.90
46037;DHT22;31769;49.304;8.428;2023-09-18T08:17:47;20.30;99.90
46037;DHT22;31769;49.304;8.428;2023-09-18T08:20:51;20.30;99.90
46037;DHT22;31769;49.304;8.428;2023-09-18T08:23:52;20.30;99.90
46037;DHT22;31769;49.304;8.428;2023-09-18T08:26:52;20.30;99.90
46037;DHT22;31769;49.304;8.428;2023-09-18T08:29:54;20.30;99.90
46037;DHT22;31769;49.304;8.428;2023-09-18T08:32:55;20.30;99.90
46037;DHT22;31769;49.304;8.428;2023-09-18T08:35:56;20.40;99.90
46037;DHT22;31769;49.304;8.428;2023-09-18T08:38:56;20.40;99.90
46037;DHT22;31769;49.304;8.428;2023-09-18T08:41:59;20.30;99.90
46037;DHT22;31769;49.304;8.428;2023-09-18T08:45:07;20.30;99.90
46037;DHT22;31769;49.304;8.428;2023-09-18T08:48:09;20.40;99.90
46037;DHT22;31769;49.304;8.428;2023-09-18T08:51:11;20.40;99.90
46037;DHT22;31769;49.304;8.428;2023-09-18T08:54:12;20.50;99.90
46037;DHT22;31769;49.304;8.428;2023-09-18T08:57:13;20.50;99.90
46037;DHT22;31769;49.304;8.428;2023-09-18T09:00:14;20.60;99.90
46037;DHT22;31769;49.304;8.428;2023-09-18T09:03:17;20.60;99.90
46037;DHT22;31769;49.304;8.428;2023-09-18T09:06:18;20.70;99.90
46037;DHT22;31769;49.304;8.428;2023-09-18T09:09:19;20.70;99.90
46037;DHT22;31769;49.304;8.428;2023-09-18T09:12:49;20.70;99.90
46037;DHT22;31769;49.304;8.428;2023-09-18T09:15:50;20.70;99.90
46037;DHT22;31769;49.304;8.428;2023-09-18T09:18:54;20.70;99.90
46037;DHT22;31769;49.304;8.428;2023-09-18T09:21:55;20.70;99.90
46037;DHT22;31769;49.304;8.428;2023-09-18T09:24:56;20.70;99.90
46037;DHT22;31769;49.304;8.428;2023-09-18T09:27:58;20.70;99.90
46037;DHT22;31769;49.304;8.428;2023-09-18T09:31:03;20.80;99.90
46037;DHT22;31769;49.304;8.428;2023-09-18T09:34:04;20.70;99.90
46037;DHT22;31769;49.304;8.428;2023-09-18T09:37:05;20.80;99.90
46037;DHT22;31769;49.304;8.428;2023-09-18T09:40:07;20.80;99.90
46037;DHT22;31769;49.304;8.428;2023-09-18T09:43:14;20.70;99.90
46037;DHT22;31769;49.304;8.428;2023-09-18T09:46:16;20.70;99.90
46037;DHT22;31769;49.304;8.428;2023-09-18T09:49:18;20.60;99.90
46037;DHT22;31769;49.304;8.428;2023-09-18T09:52:20;20.70;99.90
46037;DHT22;31769;49.304;8.428;2023-09-18T09:55:32;20.80;99.90
46037;DHT22;31769;49.304;8.428;2023-09-18T09:58:36;20.80;99.90
46037;DHT22;31769;49.304;8.428;2023-09-18T10:01:38;21.00;99.90
46037;DHT22;31769;49.304;8.428;2023-09-18T10:04:39;21.10;99.90
46037;DHT22;31769;49.304;8.428;2023-09-18T10:07:40;21.10;99.90
46037;DHT22;31769;49.304;8.428;2023-09-18T10:13:55;21.10;99.90
46037;DHT22;31769;49.304;8.428;2023-09-18T10:16:59;21.20;99.90
46037;DHT22;31769;49.304;8.428;2023-09-18T10:20:07;21.30;99.90
46037;DHT22;31769;49.304;8.428;2023-09-18T10:23:30;21.40;99.90
46037;DHT22;31769;49.304;8.428;2023-09-18T10:26:41;21.40;99.90
46037;DHT22;31769;49.304;8.428;2023-09-18T10:29:49;21.40;99.90
46037;DHT22;31769;49.304;8.428;2023-09-18T10:32:51;21.60;99.90
46037;DHT22;31769;49.304;8.428;2023-09-18T10:35:53;21.70;99.90
46037;DHT22;31769;49.304;8.428;2023-09-18T10:38:55;21.80;99.90
46037;DHT22;31769;49.304;8.428;2023-09-18T10:42:01;21.90;99.90
46037;DHT22;31769;49.304;8.428;2023-09-18T10:45:03;22.00;99.90
46037;DHT22;31769;49.304;8.428;2023-09-18T10:48:08;22.10;99.90
46037;DHT22;31769;49.304;8.428;2023-09-18T10:51:10;22.20;99.90
46037;DHT22;31769;49.304;8.428;2023-09-18T10:54:15;22.30;99.90
46037;DHT22;31769;49.304;8.428;2023-09-18T10:57:16;22.50;99.90
46037;DHT22;31769;49.304;8.428;2023-09-18T11:00:17;22.60;99.90
46037;DHT22;31769;49.304;8.428;2023-09-18T11:03:23;22.50;99.90
46037;DHT22;31769;49.304;8.428;2023-09-18T11:06:24;22.60;99.90
46037;DHT22;31769;49.304;8.428;2023-09-18T11:09:29;22.60;99.90
46037;DHT22;31769;49.304;8.428;2023-09-18T11:12:48;22.50;99.90
46037;DHT22;31769;49.304;8.428;2023-09-18T11:15:49;22.80;99.90
46037;DHT22;31769;49.304;8.428;2023-09-18T11:18:52;22.90;99.90
46037;DHT22;31769;49.304;8.428;2023-09-18T11:22:07;22.90;99.90
46037;DHT22;31769;49.304;8.428;2023-09-18T11:25:39;23.00;99.90
46037;DHT22;31769;49.304;8.428;2023-09-18T11:28:47;23.20;99.90
46037;DHT22;31769;49.304;8.428;2023-09-18T11:31:52;23.50;99.90
46037;DHT22;31769;49.304;8.428;2023-09-18T11:35:06;23.30;99.90
46037;DHT22;31769;49.304;8.428;2023-09-18T11:38:09;23.50;99.90
46037;DHT22;31769;49.304;8.428;2023-09-18T11:41:31;23.50;99.90
46037;DHT22;31769;49.304;8.428;2023-09-18T11:44:33;23.40;99.90
46037;DHT22;31769;49.304;8.428;2023-09-18T11:47:34;23.60;99.90
46037;DHT22;31769;49.304;8.428;2023-09-18T11:50:43;23.70;99.90
46037;DHT22;31769;49.304;8.428;2023-09-18T11:53:45;23.80;99.90
46037;DHT22;31769;49.304;8.428;2023-09-18T11:56:45;23.90;99.90
46037;DHT22;31769;49.304;8.428;2023-09-18T11:59:47;24.20;99.90
46037;DHT22;31769;49.304;8.428;2023-09-18T12:02:47;24.00;99.90
46037;DHT22;31769;49.304;8.428;2023-09-18T12:06:00;23.60;99.90
46037;DHT22;31769;49.304;8.428;2023-09-18T12:09:05;23.70;99.90
46037;DHT22;31769;49.304;8.428;2023-09-18T12:12:06;23.50;99.90
46037;DHT22;31769;49.304;8.428;2023-09-18T12:15:12;23.70;99.90
46037;DHT22;31769;49.304;8.428;2023-09-18T12:18:15;23.60;99.90
46037;DHT22;31769;49.304;8.428;2023-09-18T12:21:16;23.80;99.90
46037;DHT22;31769;49.304;8.428;2023-09-18T12:24:22;23.90;99.90
46037;DHT22;31769;49.304;8.428;2023-09-18T12:27:23;24.00;99.90
46037;DHT22;31769;49.304;8.428;2023-09-18T12:30:27;24.30;99.90
46037;DHT22;31769;49.304;8.428;2023-09-18T12:33:28;24.40;99.90
46037;DHT22;31769;49.304;8.428;2023-09-18T12:36:28;24.00;99.90
46037;DHT22;31769;49.304;8.428;2023-09-18T12:39:33;23.70;99.90
46037;DHT22;31769;49.304;8.428;2023-09-18T12:42:36;23.70;99.90
46037;DHT22;31769;49.304;8.428;2023-09-18T12:45:41;23.60;99.90
46037;DHT22;31769;49.304;8.428;2023-09-18T12:48:41;23.80;99.90
46037;DHT22;31769;49.304;8.428;2023-09-18T12:52:00;24.20;99.90
46037;DHT22;31769;49.304;8.428;2023-09-18T12:55:01;24.30;99.90
46037;DHT22;31769;49.304;8.428;2023-09-18T12:58:04;24.40;99.90
46037;DHT22;31769;49.304;8.428;2023-09-18T13:01:11;25.50;99.90
46037;DHT22;31769;49.304;8.428;2023-09-18T13:04:12;25.50;99.90
46037;DHT22;31769;49.304;8.428;2023-09-18T13:07:14;25.80;99.90
46037;DHT22;31769;49.304;8.428;2023-09-18T13:10:14;25.20;99.90
46037;DHT22;31769;49.304;8.428;2023-09-18T13:13:20;24.70;99.90
46037;DHT22;31769;49.304;8.428;2023-09-18T13:16:22;24.90;99.90
46037;DHT22;31769;49.304;8.428;2023-09-18T13:19:23;24.40;99.90
46037;DHT22;31769;49.304;8.428;2023-09-18T13:22:26;24.30;99.90
46037;DHT22;31769;49.304;8.428;2023-09-18T13:25:39;24.30;99.90
46037;DHT22;31769;49.304;8.428;2023-09-18T13:28:42;24.10;99.90
46037;DHT22;31769;49.304;8.428;2023-09-18T13:31:43;24.10;99.90
46037;DHT22;31769;49.304;8.428;2023-09-18T13:34:44;24.20;99.90
46037;DHT22;31769;49.304;8.428;2023-09-18T13:37:45;24.30;99.90
46037;DHT22;31769;49.304;8.428;2023-09-18T13:40:47;24.30;99.90
46037;DHT22;31769;49.304;8.428;2023-09-18T13:43:48;24.30;99.90
46037;DHT22;31769;49.304;8.428;2023-09-18T13:46:50;24.60;99.90
46037;DHT22;31769;49.304;8.428;2023-09-18T13:49:50;25.60;99.90
46037;DHT22;31769;49.304;8.428;2023-09-18T13:52:52;26.10;99.90
46037;DHT22;31769;49.304;8.428;2023-09-18T13:55:53;27.30;99.90
46037;DHT22;31769;49.304;8.428;2023-09-18T13:58:55;29.30;99.90
46037;DHT22;31769;49.304;8.428;2023-09-18T14:01:56;30.20;99.90
46037;DHT22;31769;49.304;8.428;2023-09-18T14:04:56;31.20;99.80
46037;DHT22;31769;49.304;8.428;2023-09-18T14:07:57;31.60;98.10
46037;DHT22;31769;49.304;8.428;2023-09-18T14:11:00;31.90;97.60
46037;DHT22;31769;49.304;8.428;2023-09-18T14:14:00;31.20;96.50
46037;DHT22;31769;49.304;8.428;2023-09-18T14:17:02;29.20;99.00
46037;DHT22;31769;49.304;8.428;2023-09-18T14:20:05;28.80;99.90
46037;DHT22;31769;49.304;8.428;2023-09-18T14:23:08;30.40;97.90
46037;DHT22;31769;49.304;8.428;2023-09-18T14:26:09;31.30;96.60
46037;DHT22;31769;49.304;8.428;2023-09-18T14:29:10;32.70;94.20
46037;DHT22;31769;49.304;8.428;2023-09-18T14:32:11;34.20;92.00
46037;DHT22;31769;49.304;8.428;2023-09-18T14:35:12;34.60;89.60
46037;DHT22;31769;49.304;8.428;2023-09-18T14:38:14;35.60;86.50
46037;DHT22;31769;49.304;8.428;2023-09-18T14:41:15;35.10;82.60
46037;DHT22;31769;49.304;8.428;2023-09-18T14:44:17;33.70;85.30
46037;DHT22;31769;49.304;8.428;2023-09-18T14:47:18;34.40;83.70
46037;DHT22;31769;49.304;8.428;2023-09-18T14:50:18;33.70;83.80
46037;DHT22;31769;49.304;8.428;2023-09-18T14:53:19;31.60;89.00
46037;DHT22;31769;49.304;8.428;2023-09-18T14:56:20;30.10;92.70
46037;DHT22;31769;49.304;8.428;2023-09-18T14:59:20;32.60;89.00
46037;DHT22;31769;49.304;8.428;2023-09-18T15:02:21;35.20;81.50
46037;DHT22;31769;49.304;8.428;2023-09-18T15:05:22;34.60;81.90
46037;DHT22;31769;49.304;8.428;2023-09-18T15:08:22;35.70;79.00
46037;DHT22;31769;49.304;8.428;2023-09-18T15:11:23;36.40;75.90
46037;DHT22;31769;49.304;8.428;2023-09-18T15:14:24;36.10;75.90
46037;DHT22;31769;49.304;8.428;2023-09-18T15:17:24;35.60;75.40
46037;DHT22;31769;49.304;8.428;2023-09-18T15:20:26;35.10;76.40
46037;DHT22;31769;49.304;8.428;2023-09-18T15:23:27;33.70;79.10
46037;DHT22;31769;49.304;8.428;2023-09-18T15:26:28;32.50;82.80
46037;DHT22;31769;49.304;8.428;2023-09-18T15:29:28;33.90;79.50
46037;DHT22;31769;49.304;8.428;2023-09-18T15:32:52;32.30;82.20
46037;DHT22;31769;49.304;8.428;2023-09-18T15:35:55;33.40;80.10
46037;DHT22;31769;49.304;8.428;2023-09-18T15:38:55;33.00;81.60
46037;DHT22;31769;49.304;8.428;2023-09-18T15:41:57;33.20;81.10
46037;DHT22;31769;49.304;8.428;2023-09-18T15:57:46;30.90;85.10
46037;DHT22;31769;49.304;8.428;2023-09-18T16:00:47;28.10;91.60
46037;DHT22;31769;49.304;8.428;2023-09-18T16:03:49;26.60;94.30
46037;DHT22;31769;49.304;8.428;2023-09-18T16:06:50;25.60;97.10
46037;DHT22;31769;49.304;8.428;2023-09-18T16:09:51;25.10;99.70
46037;DHT22;31769;49.304;8.428;2023-09-18T16:12:52;24.80;99.90
46037;DHT22;31769;49.304;8.428;2023-09-18T16:15:53;24.50;99.90
46037;DHT22;31769;49.304;8.428;2023-09-18T16:18:54;24.30;99.90
46037;DHT22;31769;49.304;8.428;2023-09-18T16:21:58;24.10;99.90
46037;DHT22;31769;49.304;8.428;2023-09-18T16:24:59;23.90;99.90
46037;DHT22;31769;49.304;8.428;2023-09-18T16:28:00;23.90;99.90
46037;DHT22;31769;49.304;8.428;2023-09-18T16:31:02;23.80;99.90
46037;DHT22;31769;49.304;8.428;2023-09-18T16:34:05;23.70;99.90
46037;DHT22;31769;49.304;8.428;2023-09-18T16:37:07;23.60;99.90
46037;DHT22;31769;49.304;8.428;2023-09-18T16:40:08;23.50;99.90
46037;DHT22;31769;49.304;8.428;2023-09-18T16:43:12;23.30;99.90
46037;DHT22;31769;49.304;8.428;2023-09-18T16:46:12;23.20;99.90
46037;DHT22;31769;49.304;8.428;2023-09-18T16:49:13;23.10;99.90
46037;DHT22;31769;49.304;8.428;2023-09-18T16:52:18;23.00;99.90
46037;DHT22;31769;49.304;8.428;2023-09-18T16:55:20;22.90;99.90
46037;DHT22;31769;49.304;8.428;2023-09-18T16:58:21;22.80;99.90
46037;DHT22;31769;49.304;8.428;2023-09-18T17:01:21;22.70;99.90
46037;DHT22;31769;49.304;8.428;2023-09-18T17:04:22;22.70;99.90
46037;DHT22;31769;49.304;8.428;2023-09-18T17:07:23;22.70;99.90
46037;DHT22;31769;49.304;8.428;2023-09-18T17:10:23;22.60;99.90
46037;DHT22;31769;49.304;8.428;2023-09-18T17:13:26;22.60;99.90
46037;DHT22;31769;49.304;8.428;2023-09-18T17:16:27;22.60;99.90
46037;DHT22;31769;49.304;8.428;2023-09-18T17:19:28;22.60;99.90
46037;DHT22;31769;49.304;8.428;2023-09-18T17:22:28;22.50;99.90
46037;DHT22;31769;49.304;8.428;2023-09-18T17:25:29;22.40;99.90
46037;DHT22;31769;49.304;8.428;2023-09-18T17:28:30;20.10;99.90
46037;DHT22;31769;49.304;8.428;2023-09-18T17:31:31;18.40;99.90
46037;DHT22;31769;49.304;8.428;2023-09-18T17:34:32;17.60;99.90
46037;DHT22;31769;49.304;8.428;2023-09-18T17:37:33;17.10;99.90
46037;DHT22;31769;49.304;8.428;2023-09-18T17:40:34;16.90;99.90
46037;DHT22;31769;49.304;8.428;2023-09-18T17:43:35;16.90;99.90
46037;DHT22;31769;49.304;8.428;2023-09-18T17:46:35;16.90;99.90
46037;DHT22;31769;49.304;8.428;2023-09-18T17:49:36;16.90;99.90
46037;DHT22;31769;49.304;8.428;2023-09-18T17:52:37;16.90;99.90
46037;DHT22;31769;49.304;8.428;2023-09-18T17:55:39;16.90;99.90
46037;DHT22;31769;49.304;8.428;2023-09-18T17:58:41;16.80;99.90
46037;DHT22;31769;49.304;8.428;2023-09-18T18:01:42;16.80;99.90
46037;DHT22;31769;49.304;8.428;2023-09-18T18:04:43;16.70;99.90
46037;DHT22;31769;49.304;8.428;2023-09-18T18:07:44;16.90;99.90
46037;DHT22;31769;49.304;8.428;2023-09-18T18:10:46;17.10;99.90
46037;DHT22;31769;49.304;8.428;2023-09-18T18:13:47;17.20;99.90
46037;DHT22;31769;49.304;8.428;2023-09-18T18:16:48;17.30;99.90
46037;DHT22;31769;49.304;8.428;2023-09-18T18:19:49;17.10;99.90
46037;DHT22;31769;49.304;8.428;2023-09-18T18:22:50;17.00;99.90
46037;DHT22;31769;49.304;8.428;2023-09-18T18:25:51;16.90;99.90
46037;DHT22;31769;49.304;8.428;2023-09-18T18:28:56;16.80;99.90
46037;DHT22;31769;49.304;8.428;2023-09-18T18:31:58;16.70;99.90
46037;DHT22;31769;49.304;8.428;2023-09-18T18:34:59;16.70;99.90
46037;DHT22;31769;49.304;8.428;2023-09-18T18:37:59;16.60;99.90
46037;DHT22;31769;49.304;8.428;2023-09-18T18:41:00;16.60;99.90
46037;DHT22;31769;49.304;8.428;2023-09-18T18:44:07;16.60;99.90
46037;DHT22;31769;49.304;8.428;2023-09-18T18:47:08;16.60;99.90
46037;DHT22;31769;49.304;8.428;2023-09-18T18:50:09;16.50;99.90
46037;DHT22;31769;49.304;8.428;2023-09-18T18:53:10;16.50;99.90
46037;DHT22;31769;49.304;8.428;2023-09-18T18:56:11;16.60;99.90
46037;DHT22;31769;49.304;8.428;2023-09-18T18:59:15;16.60;99.90
46037;DHT22;31769;49.304;8.428;2023-09-18T19:02:17;16.60;99.90
46037;DHT22;31769;49.304;8.428;2023-09-18T19:05:17;16.60;99.90
46037;DHT22;31769;49.304;8.428;2023-09-18T19:08:18;16.60;99.90
46037;DHT22;31769;49.304;8.428;2023-09-18T19:11:19;16.70;99.90
46037;DHT22;31769;49.304;8.428;2023-09-18T19:14:20;16.70;99.90
46037;DHT22;31769;49.304;8.428;2023-09-18T19:17:21;16.60;99.90
46037;DHT22;31769;49.304;8.428;2023-09-18T19:20:23;16.70;99.90
46037;DHT22;31769;49.304;8.428;2023-09-18T19:23:27;16.70;99.90
46037;DHT22;31769;49.304;8.428;2023-09-18T19:26:28;16.80;99.90
46037;DHT22;31769;49.304;8.428;2023-09-18T19:29:29;16.80;99.90